Time;durP1;ratioP1;P1;durP2;ratioP2;P2;SDS_P1;SDS_P2;PMS_P1;PMS_P2;Temp;Humidity;BMP_temperature;BMP_pressure;BME280_temperature;BME280_humidity;BME280_pressure;Samples;Min_cycle;Max_cycle;Signal;HPM_P1;HPM_P2
2022/11/04 00:01:29;;;;;;;13.93;7.27;;;8.10;99.90;;;;;;5059375;28;20217;-69
2022/11/04 00:03:56;;;;;;;13.23;6.90;;;8.10;99.90;;;;;;5056097;28;20209;-70
2022/11/04 00:06:24;;;;;;;17.93;8.20;;;8.10;99.90;;;;;;5056909;28;20208;-70
2022/11/04 00:08:52;;;;;;;14.97;7.20;;;8.10;99.90;;;;;;5054227;28;20229;-69
2022/11/04 00:14:04;;;;;;;14.00;6.43;;;8.10;99.90;;;;;;5053497;28;20280;-68
2022/11/04 00:19:16;;;;;;;15.67;6.80;;;8.10;99.90;;;;;;5056714;28;20205;-70
2022/11/04 00:29:59;;;;;;;14.13;6.57;;;8.10;99.90;;;;;;5057647;28;20263;-70
2022/11/04 00:35:11;;;;;;;15.87;7.40;;;8.20;99.90;;;;;;5058976;28;20690;-68
2022/11/04 00:37:41;;;;;;;14.50;7.10;;;8.20;99.90;;;;;;5055975;28;20289;-69
2022/11/04 00:40:10;;;;;;;17.50;7.30;;;8.20;99.90;;;;;;5053611;28;20201;-70
2022/11/04 00:42:37;;;;;;;14.63;7.57;;;8.20;99.90;;;;;;5054620;28;20252;-70
2022/11/04 00:45:04;;;;;;;11.83;7.33;;;8.20;99.90;;;;;;5052523;28;20222;-69
2022/11/04 00:47:31;;;;;;;12.00;7.10;;;8.20;99.90;;;;;;5071207;28;20619;-69
2022/11/04 00:49:58;;;;;;;11.67;6.87;;;8.20;99.90;;;;;;5054687;28;20625;-68
2022/11/04 00:52:25;;;;;;;15.97;7.70;;;8.20;99.90;;;;;;5064285;28;20201;-69
2022/11/04 00:54:53;;;;;;;13.27;7.27;;;8.20;99.90;;;;;;5057444;28;20206;-70
2022/11/04 00:57:20;;;;;;;13.80;8.07;;;8.10;99.90;;;;;;5061548;28;20220;-69
2022/11/04 00:59:46;;;;;;;14.07;8.30;;;8.10;99.90;;;;;;5055880;28;20222;-69
2022/11/04 01:02:13;;;;;;;16.03;7.07;;;8.10;99.90;;;;;;5065534;28;20202;-69
2022/11/04 01:04:40;;;;;;;15.53;7.37;;;8.10;99.90;;;;;;5058916;28;20689;-68
2022/11/04 01:07:07;;;;;;;13.77;7.83;;;8.10;99.90;;;;;;5053453;28;20217;-69
2022/11/04 01:09:33;;;;;;;13.37;7.70;;;8.10;99.90;;;;;;5053604;28;20564;-69
2022/11/04 01:12:01;;;;;;;15.33;7.53;;;8.10;99.90;;;;;;5052545;28;20206;-69
2022/11/04 01:14:28;;;;;;;14.40;7.43;;;8.10;99.90;;;;;;5059010;28;20206;-68
2022/11/04 01:16:55;;;;;;;18.27;7.37;;;8.20;99.90;;;;;;5060117;28;20206;-69
2022/11/04 01:19:22;;;;;;;12.50;6.53;;;8.20;99.90;;;;;;5057715;28;20208;-68
2022/11/04 01:21:51;;;;;;;11.70;6.83;;;8.20;99.90;;;;;;5057161;28;20237;-69
2022/11/04 01:24:18;;;;;;;15.13;7.53;;;8.20;99.90;;;;;;5051670;28;20604;-69
2022/11/04 01:26:45;;;;;;;12.23;7.50;;;8.10;99.90;;;;;;5053101;28;20261;-67
2022/11/04 01:29:13;;;;;;;10.17;6.37;;;8.10;99.90;;;;;;5054937;28;20212;-69
2022/11/04 01:31:40;;;;;;;13.03;7.20;;;8.10;99.90;;;;;;5064028;28;20651;-70
2022/11/04 01:34:07;;;;;;;18.33;8.70;;;8.10;99.90;;;;;;5054390;28;20209;-69
2022/11/04 01:36:34;;;;;;;16.10;7.73;;;8.10;99.90;;;;;;5063499;28;20658;-68
2022/11/04 01:39:01;;;;;;;14.13;7.80;;;8.10;99.90;;;;;;5059950;28;20213;-69
2022/11/04 01:41:30;;;;;;;15.23;7.40;;;8.10;99.90;;;;;;5060465;28;20205;-70
2022/11/04 01:43:58;;;;;;;13.23;7.37;;;8.10;99.90;;;;;;5061397;28;20217;-69
2022/11/04 01:46:32;;;;;;;17.30;7.73;;;8.10;99.90;;;;;;5059004;28;20661;-69
2022/11/04 01:49:04;;;;;;;14.67;7.37;;;8.00;99.90;;;;;;5058294;28;20659;-68
2022/11/04 01:51:34;;;;;;;15.53;7.23;;;8.10;99.90;;;;;;5055735;28;20217;-69
2022/11/04 01:54:02;;;;;;;13.20;7.90;;;8.10;99.90;;;;;;5059735;28;20206;-69
2022/11/04 01:56:29;;;;;;;12.73;7.57;;;8.10;99.90;;;;;;5057826;28;20206;-69
2022/11/04 01:58:59;;;;;;;16.47;7.47;;;8.10;99.90;;;;;;5052498;28;20573;-69
2022/11/04 02:01:27;;;;;;;16.93;8.27;;;8.10;99.90;;;;;;5052886;28;20202;-68
2022/11/04 02:04:24;;;;;;;11.50;6.73;;;8.10;99.90;;;;;;5055023;28;20655;-69
2022/11/04 02:06:47;;;;;;;11.00;7.10;;;8.10;99.90;;;;;;5054845;28;20285;-69
2022/11/04 02:09:15;;;;;;;10.93;6.83;;;8.10;99.90;;;;;;5064083;28;20210;-69
2022/11/04 02:14:26;;;;;;;12.47;6.53;;;8.10;99.90;;;;;;5061830;28;20336;-69
2022/11/04 02:17:01;;;;;;;14.43;6.93;;;8.10;99.90;;;;;;5053881;28;20213;-69
2022/11/04 02:19:50;;;;;;;12.77;7.03;;;8.10;99.90;;;;;;5052508;28;20641;-70
2022/11/04 02:22:49;;;;;;;10.40;7.00;;;8.10;99.90;;;;;;5052082;28;20233;-69
2022/11/04 02:25:41;;;;;;;10.40;6.90;;;8.20;99.90;;;;;;5055000;28;20307;-69
2022/11/04 02:28:39;;;;;;;13.70;6.80;;;8.20;99.90;;;;;;5025513;28;20201;-68
2022/11/04 02:31:14;;;;;;;11.63;6.77;;;8.10;99.90;;;;;;5054295;28;20315;-69
2022/11/04 02:33:50;;;;;;;15.50;6.73;;;8.20;99.90;;;;;;5051463;28;20209;-69
2022/11/04 02:36:27;;;;;;;12.40;6.67;;;8.10;99.90;;;;;;5066048;28;20201;-70
2022/11/04 02:38:57;;;;;;;12.73;7.00;;;8.10;99.90;;;;;;5051864;28;20205;-69
2022/11/04 02:41:34;;;;;;;12.30;7.13;;;8.10;99.90;;;;;;5060902;28;20201;-69
2022/11/04 02:44:12;;;;;;;12.37;7.13;;;8.00;99.90;;;;;;5056683;28;20200;-69
2022/11/04 02:46:48;;;;;;;17.93;6.53;;;8.00;99.90;;;;;;5051838;28;20214;-70
2022/11/04 02:49:20;;;;;;;10.13;5.97;;;8.00;99.90;;;;;;5063602;28;20258;-69
2022/11/04 02:51:53;;;;;;;10.70;6.50;;;8.00;99.90;;;;;;5060169;28;20224;-69
2022/11/04 02:54:25;;;;;;;10.33;6.37;;;8.00;99.90;;;;;;5051414;28;20614;-69
2022/11/04 02:56:56;;;;;;;10.60;6.40;;;8.00;99.90;;;;;;5051103;28;20296;-69
2022/11/04 02:59:29;;;;;;;12.97;7.30;;;8.00;99.90;;;;;;5052132;28;20202;-68
2022/11/04 03:02:00;;;;;;;11.07;5.87;;;8.00;99.90;;;;;;5057461;28;20548;-68
2022/11/04 03:04:31;;;;;;;16.87;6.77;;;8.00;99.90;;;;;;5058013;28;20206;-68
2022/11/04 03:07:01;;;;;;;11.93;6.10;;;8.00;99.90;;;;;;5051002;28;20654;-69
2022/11/04 03:09:30;;;;;;;10.73;6.27;;;8.10;99.90;;;;;;5063171;28;20224;-70
2022/11/04 03:12:02;;;;;;;13.20;6.90;;;8.10;99.90;;;;;;5061129;28;20204;-69
2022/11/04 03:14:35;;;;;;;15.17;6.80;;;8.10;99.90;;;;;;5064061;28;20549;-69
2022/11/04 03:17:06;;;;;;;12.90;6.23;;;8.10;99.90;;;;;;5064149;28;20564;-69
2022/11/04 03:19:41;;;;;;;11.17;6.53;;;8.10;99.90;;;;;;5064807;28;20531;-69
2022/11/04 03:22:12;;;;;;;10.83;6.10;;;8.10;99.90;;;;;;5051603;28;20229;-69
2022/11/04 03:24:40;;;;;;;11.27;6.60;;;8.20;99.90;;;;;;5054334;28;20209;-69
2022/11/04 03:27:14;;;;;;;12.73;6.53;;;8.10;99.90;;;;;;5053908;28;20213;-70
2022/11/04 03:29:49;;;;;;;9.60;6.10;;;8.20;99.90;;;;;;5050419;28;20206;-69
2022/11/04 03:32:24;;;;;;;8.40;5.43;;;8.20;99.90;;;;;;5065692;28;20554;-69
2022/11/04 03:34:52;;;;;;;14.30;6.77;;;8.20;99.90;;;;;;5055517;28;20657;-69
2022/11/04 03:37:19;;;;;;;11.57;6.07;;;8.20;99.90;;;;;;5058415;28;20206;-68
2022/11/04 03:39:46;;;;;;;9.67;5.37;;;8.20;99.90;;;;;;5051297;28;20680;-69
2022/11/04 03:42:20;;;;;;;12.07;6.23;;;8.20;99.90;;;;;;5056013;28;20601;-70
2022/11/04 03:44:49;;;;;;;14.70;6.47;;;8.20;99.90;;;;;;5050739;28;20263;-70
2022/11/04 03:47:18;;;;;;;10.77;6.37;;;8.30;99.90;;;;;;5061334;28;20208;-69
2022/11/04 03:49:47;;;;;;;12.47;6.40;;;8.30;99.90;;;;;;5067714;28;20201;-70
2022/11/04 03:52:14;;;;;;;11.33;7.03;;;8.30;99.90;;;;;;5051066;28;20659;-71
2022/11/04 03:54:41;;;;;;;9.70;6.07;;;8.30;99.90;;;;;;5048600;28;20208;-69
2022/11/04 03:57:22;;;;;;;11.13;6.77;;;8.20;99.90;;;;;;5057460;28;20214;-69
2022/11/04 04:00:07;;;;;;;12.07;6.40;;;8.30;99.90;;;;;;5059617;28;20209;-69
2022/11/04 04:03:10;;;;;;;15.17;7.00;;;8.30;99.90;;;;;;5051354;28;20697;-69
2022/11/04 04:05:42;;;;;;;9.23;5.90;;;8.30;99.90;;;;;;5058835;28;20235;-69
2022/11/04 04:08:15;;;;;;;13.63;6.43;;;8.30;99.90;;;;;;5069094;28;20201;-70
2022/11/04 04:10:50;;;;;;;14.77;6.17;;;8.30;99.90;;;;;;5050717;28;20212;-70
2022/11/04 04:13:23;;;;;;;12.37;6.27;;;8.30;99.90;;;;;;5061242;28;20215;-69
2022/11/04 04:15:54;;;;;;;8.87;6.03;;;8.30;99.90;;;;;;5056155;28;20567;-70
2022/11/04 04:18:29;;;;;;;11.47;6.13;;;8.50;99.90;;;;;;5068620;28;20213;-69
2022/11/04 04:21:01;;;;;;;10.57;5.77;;;8.30;99.90;;;;;;5050318;28;20208;-68
2022/11/04 04:29:05;;;;;;;10.50;6.10;;;8.30;99.90;;;;;;5055885;28;20509;-69
2022/11/04 04:31:51;;;;;;;13.67;6.20;;;8.30;99.90;;;;;;5050728;28;20210;-68
2022/11/04 04:34:21;;;;;;;9.67;6.20;;;8.30;99.90;;;;;;5063517;28;20206;-70
2022/11/04 04:36:56;;;;;;;10.83;6.20;;;8.30;99.90;;;;;;5063118;28;20582;-68
2022/11/04 04:45:20;;;;;;;11.00;6.07;;;8.30;99.90;;;;;;5007393;28;20214;-70
2022/11/04 04:47:47;;;;;;;11.37;6.23;;;8.30;99.90;;;;;;5001946;28;20203;-70
2022/11/04 04:50:16;;;;;;;14.80;6.50;;;8.30;99.90;;;;;;5034505;28;20222;-69
2022/11/04 04:52:46;;;;;;;10.53;5.70;;;8.30;99.90;;;;;;5059625;28;20206;-69
2022/11/04 04:55:14;;;;;;;12.53;6.43;;;8.30;99.90;;;;;;5053297;28;20214;-68
2022/11/04 04:57:41;;;;;;;10.10;5.73;;;8.30;99.90;;;;;;5067387;28;20205;-70
2022/11/04 05:00:11;;;;;;;11.33;6.50;;;8.10;99.90;;;;;;5059963;28;20208;-69
2022/11/04 05:02:38;;;;;;;11.73;6.10;;;8.30;99.90;;;;;;5062245;28;20209;-68
2022/11/04 05:05:06;;;;;;;13.50;6.03;;;8.40;99.90;;;;;;5064171;28;20206;-69
2022/11/04 05:07:32;;;;;;;13.33;6.23;;;8.40;99.90;;;;;;5053958;28;20309;-70
2022/11/04 05:10:00;;;;;;;14.30;6.57;;;8.40;99.90;;;;;;5054349;28;20206;-68
2022/11/04 05:13:24;;;;;;;11.03;6.27;;;8.40;99.90;;;;;;5055085;28;20206;-70
2022/11/04 05:15:15;;;;;;;7.70;5.97;;;8.40;99.90;;;;;;5067901;28;20259;-69
2022/11/04 05:17:41;;;;;;;13.47;6.90;;;8.40;99.90;;;;;;5064479;28;20214;-68
2022/11/04 05:20:10;;;;;;;13.50;6.80;;;8.50;99.90;;;;;;5059286;28;20214;-69
2022/11/04 05:22:36;;;;;;;10.00;5.53;;;8.40;99.90;;;;;;5058637;28;20226;-69
2022/11/04 05:25:05;;;;;;;7.97;5.30;;;8.40;99.90;;;;;;5054187;28;20288;-69
2022/11/04 05:27:32;;;;;;;8.73;5.20;;;8.40;99.90;;;;;;5053660;28;20202;-69
2022/11/04 05:29:59;;;;;;;15.10;6.43;;;8.40;99.90;;;;;;5057059;28;20221;-70
2022/11/04 05:32:28;;;;;;;11.87;5.93;;;8.40;99.90;;;;;;5053294;28;20202;-69
2022/11/04 05:34:55;;;;;;;12.87;5.77;;;8.40;99.90;;;;;;5060196;28;20441;-69
2022/11/04 05:37:21;;;;;;;11.70;6.10;;;8.40;99.90;;;;;;5069628;28;20617;-69
2022/11/04 05:39:48;;;;;;;10.03;6.23;;;8.50;99.90;;;;;;5062246;28;20206;-71
2022/11/04 05:42:16;;;;;;;12.97;6.23;;;8.40;99.90;;;;;;5054806;28;20241;-69
2022/11/04 05:44:43;;;;;;;7.70;4.97;;;8.40;99.90;;;;;;5066915;28;20202;-69
2022/11/04 05:47:10;;;;;;;11.87;6.60;;;8.40;99.90;;;;;;5065594;28;20221;-69
2022/11/04 05:49:36;;;;;;;10.93;4.60;;;8.40;99.90;;;;;;5064429;28;20216;-68
2022/11/04 05:52:03;;;;;;;10.67;4.83;;;8.40;99.90;;;;;;5051067;28;20197;-71
2022/11/04 05:54:30;;;;;;;10.73;6.23;;;8.40;99.90;;;;;;5056023;28;20650;-68
2022/11/04 05:56:57;;;;;;;12.40;5.70;;;8.60;99.90;;;;;;5053333;28;20206;-68
2022/11/04 05:59:25;;;;;;;10.13;5.67;;;8.50;99.90;;;;;;5061040;28;20273;-69
2022/11/04 06:01:52;;;;;;;10.07;5.57;;;8.50;99.90;;;;;;5056699;28;20254;-68
2022/11/04 06:04:19;;;;;;;9.23;5.80;;;8.50;99.90;;;;;;5066414;28;20212;-67
2022/11/04 06:06:46;;;;;;;9.23;5.67;;;8.50;99.90;;;;;;5063968;28;20722;-67
2022/11/04 06:09:13;;;;;;;11.50;5.20;;;8.50;99.90;;;;;;5060188;28;20217;-68
2022/11/04 06:11:39;;;;;;;11.23;5.83;;;8.60;99.90;;;;;;5060760;28;20202;-68
2022/11/04 06:14:06;;;;;;;9.67;5.17;;;8.60;99.90;;;;;;5067743;28;20213;-67
2022/11/04 06:16:34;;;;;;;8.23;5.67;;;8.50;99.90;;;;;;5060530;28;20205;-70
2022/11/04 06:19:01;;;;;;;10.50;5.37;;;8.50;99.90;;;;;;5053954;28;20210;-69
2022/11/04 06:21:29;;;;;;;12.13;5.93;;;8.60;99.90;;;;;;5052475;28;20305;-70
2022/11/04 06:23:57;;;;;;;12.00;5.30;;;8.50;99.90;;;;;;5061767;28;20263;-69
2022/11/04 06:26:25;;;;;;;10.43;5.13;;;8.60;99.90;;;;;;5054567;28;20218;-70
2022/11/04 06:28:52;;;;;;;10.00;6.27;;;8.60;99.90;;;;;;5050771;28;20213;-70
2022/11/04 06:31:20;;;;;;;11.17;5.73;;;8.60;99.90;;;;;;5056359;28;20213;-70
2022/11/04 06:33:48;;;;;;;8.80;5.60;;;8.60;99.90;;;;;;5053821;28;20731;-69
2022/11/04 06:36:16;;;;;;;8.83;5.63;;;8.70;99.90;;;;;;5066298;28;20197;-70
2022/11/04 06:38:43;;;;;;;9.73;5.93;;;8.70;99.90;;;;;;5057545;28;20223;-70
2022/11/04 06:41:13;;;;;;;10.10;6.20;;;8.70;99.90;;;;;;5065070;28;20207;-71
2022/11/04 06:43:40;;;;;;;12.37;5.20;;;8.70;99.90;;;;;;5050322;28;20675;-68
2022/11/04 06:46:23;;;;;;;10.13;5.87;;;8.70;99.90;;;;;;5050938;28;20241;-71
2022/11/04 06:48:51;;;;;;;8.97;6.00;;;8.80;99.90;;;;;;5058739;28;20246;-69
2022/11/04 06:51:18;;;;;;;8.73;5.50;;;8.80;99.90;;;;;;5063164;28;20209;-69
2022/11/04 06:53:45;;;;;;;14.50;6.03;;;8.80;99.90;;;;;;5057543;28;20211;-69
2022/11/04 06:56:12;;;;;;;10.07;5.37;;;8.80;99.90;;;;;;5055393;28;20217;-70
2022/11/04 06:58:38;;;;;;;7.50;5.33;;;8.80;99.90;;;;;;5058003;28;20251;-70
2022/11/04 07:01:05;;;;;;;11.43;6.30;;;8.90;99.90;;;;;;5054092;28;20198;-71
2022/11/04 07:03:32;;;;;;;8.13;5.33;;;8.90;99.90;;;;;;5050406;28;20217;-70
2022/11/04 07:06:05;;;;;;;10.83;5.97;;;8.90;99.90;;;;;;5055154;28;20226;-70
2022/11/04 07:08:32;;;;;;;13.07;6.23;;;9.00;99.90;;;;;;5071271;28;20702;-70
2022/11/04 07:10:59;;;;;;;9.70;5.80;;;9.00;99.90;;;;;;5071366;28;20205;-70
2022/11/04 07:13:26;;;;;;;10.10;5.60;;;9.00;99.90;;;;;;5068331;28;20235;-70
2022/11/04 07:15:52;;;;;;;9.83;5.60;;;9.00;99.90;;;;;;5055121;28;20430;-70
2022/11/04 07:18:19;;;;;;;9.83;5.17;;;9.10;99.90;;;;;;5061038;28;20212;-70
2022/11/04 07:20:46;;;;;;;10.97;5.77;;;9.10;99.90;;;;;;5050926;28;20600;-71
2022/11/04 07:23:14;;;;;;;11.83;5.87;;;9.20;99.90;;;;;;5056699;28;20228;-70
2022/11/04 07:25:41;;;;;;;8.33;5.43;;;9.20;99.90;;;;;;5050540;28;20621;-67
2022/11/04 07:28:08;;;;;;;7.80;5.67;;;9.20;99.90;;;;;;5058049;28;20430;-72
2022/11/04 07:30:36;;;;;;;10.70;6.47;;;9.20;99.90;;;;;;5059007;28;20201;-69
2022/11/04 07:33:02;;;;;;;9.93;5.50;;;9.30;99.90;;;;;;5062939;28;20209;-69
2022/11/04 07:35:29;;;;;;;11.97;5.50;;;9.40;99.90;;;;;;5050454;28;20244;-69
2022/11/04 07:37:56;;;;;;;10.83;5.50;;;9.40;99.90;;;;;;5049117;28;20197;-68
2022/11/04 07:40:24;;;;;;;10.77;5.63;;;9.40;99.90;;;;;;5053043;28;20205;-69
2022/11/04 07:42:51;;;;;;;10.83;6.17;;;9.50;99.90;;;;;;5051071;28;20244;-70
2022/11/04 07:45:18;;;;;;;12.33;6.17;;;9.50;99.90;;;;;;5056444;28;20685;-69
2022/11/04 07:47:45;;;;;;;10.00;6.43;;;9.60;99.90;;;;;;5063818;28;20233;-71
2022/11/04 07:50:12;;;;;;;9.70;6.07;;;9.60;99.90;;;;;;5060581;28;20209;-71
2022/11/04 07:52:39;;;;;;;7.53;5.20;;;9.70;99.90;;;;;;5058029;28;21604;-69
2022/11/04 07:55:06;;;;;;;8.67;6.00;;;9.70;99.90;;;;;;5056038;28;20239;-68
2022/11/04 07:57:34;;;;;;;12.07;6.47;;;9.80;99.90;;;;;;5060341;28;20209;-68
2022/11/04 08:00:02;;;;;;;9.50;5.80;;;9.80;99.90;;;;;;5063072;28;20223;-70
2022/11/04 08:02:28;;;;;;;10.53;6.20;;;9.80;99.90;;;;;;5063681;28;20608;-71
2022/11/04 08:04:55;;;;;;;10.43;6.33;;;9.80;99.90;;;;;;5066127;28;20235;-69
2022/11/04 08:07:22;;;;;;;11.87;6.17;;;9.80;99.90;;;;;;5063033;28;20225;-71
2022/11/04 08:09:49;;;;;;;11.57;6.27;;;9.90;99.90;;;;;;5063848;28;20220;-70
2022/11/04 08:12:15;;;;;;;9.53;6.00;;;9.90;99.90;;;;;;5054643;28;20459;-72
2022/11/04 08:14:43;;;;;;;13.83;6.47;;;9.90;99.90;;;;;;5065209;28;20482;-70
2022/11/04 08:17:10;;;;;;;13.47;6.67;;;9.80;99.90;;;;;;5047805;28;20217;-70
2022/11/04 08:19:37;;;;;;;13.47;6.50;;;9.80;99.90;;;;;;5060574;28;20289;-71
2022/11/04 08:22:04;;;;;;;12.77;6.80;;;9.80;99.90;;;;;;5060658;28;20233;-71
2022/11/04 08:24:30;;;;;;;10.43;6.43;;;9.80;99.90;;;;;;5063420;28;20680;-71
2022/11/04 08:26:57;;;;;;;7.17;5.50;;;9.80;99.90;;;;;;5064366;28;20225;-71
2022/11/04 08:29:24;;;;;;;9.63;5.73;;;9.80;99.90;;;;;;5068804;28;20206;-71
2022/11/04 08:31:52;;;;;;;10.77;6.53;;;9.80;99.90;;;;;;5070413;28;20209;-70
2022/11/04 08:34:19;;;;;;;12.63;6.37;;;9.80;99.90;;;;;;5057993;28;20233;-72
2022/11/04 08:36:46;;;;;;;12.30;6.63;;;9.80;99.90;;;;;;5054637;28;20206;-71
2022/11/04 08:39:13;;;;;;;10.00;6.20;;;9.90;99.90;;;;;;5057513;28;20217;-72
2022/11/04 08:41:44;;;;;;;10.00;6.23;;;9.90;99.90;;;;;;5067359;28;20205;-72
2022/11/04 08:44:13;;;;;;;11.37;6.73;;;9.90;99.90;;;;;;5056133;28;20200;-71
2022/11/04 08:46:41;;;;;;;11.30;6.93;;;9.90;99.90;;;;;;5058848;28;20253;-71
2022/11/04 08:49:10;;;;;;;11.90;7.30;;;9.90;99.90;;;;;;5066031;28;20205;-71
2022/11/04 08:51:39;;;;;;;10.23;6.97;;;10.00;99.90;;;;;;5060854;28;20220;-70
2022/11/04 08:54:06;;;;;;;12.73;6.77;;;9.90;99.90;;;;;;5063316;28;20209;-71
2022/11/04 08:56:35;;;;;;;10.67;6.43;;;10.00;99.90;;;;;;5058792;28;20717;-71
2022/11/04 08:59:03;;;;;;;10.47;6.77;;;10.00;99.90;;;;;;5059075;28;20868;-71
2022/11/04 09:01:31;;;;;;;11.87;6.67;;;10.00;99.90;;;;;;5056586;28;20270;-71
2022/11/04 09:03:58;;;;;;;9.60;6.73;;;10.10;99.90;;;;;;5057043;28;20229;-70
2022/11/04 09:06:29;;;;;;;14.10;7.30;;;10.10;99.90;;;;;;5053853;28;20209;-71
2022/11/04 09:09:02;;;;;;;10.50;6.53;;;10.10;99.90;;;;;;5060113;28;20201;-71
2022/11/04 09:11:30;;;;;;;11.67;6.50;;;10.10;99.90;;;;;;5063322;28;20209;-70
2022/11/04 09:14:00;;;;;;;8.97;6.60;;;10.10;99.90;;;;;;5061984;28;20325;-70
2022/11/04 09:16:28;;;;;;;12.80;6.80;;;10.20;99.90;;;;;;5066980;28;20201;-70
2022/11/04 09:18:57;;;;;;;12.43;7.30;;;10.20;99.90;;;;;;5056773;28;20213;-70
2022/11/04 09:21:25;;;;;;;16.53;7.40;;;10.20;99.90;;;;;;5057185;28;20206;-71
2022/11/04 09:23:53;;;;;;;10.17;6.73;;;10.20;99.90;;;;;;5065407;28;20234;-70
2022/11/04 09:26:21;;;;;;;11.90;7.27;;;10.20;99.90;;;;;;5066939;28;20573;-72
2022/11/04 09:28:52;;;;;;;8.67;6.37;;;10.20;99.90;;;;;;5057113;28;20202;-71
2022/11/04 09:31:20;;;;;;;10.00;6.70;;;10.30;99.90;;;;;;5060944;28;20201;-71
2022/11/04 09:33:47;;;;;;;11.50;6.47;;;10.30;99.90;;;;;;5057964;28;20260;-73
2022/11/04 09:36:14;;;;;;;11.07;6.60;;;10.40;99.90;;;;;;5060162;28;20205;-73
2022/11/04 09:38:43;;;;;;;11.03;7.13;;;10.50;99.90;;;;;;5060709;28;20205;-71
2022/11/04 09:41:33;;;;;;;12.33;6.80;;;10.50;99.90;;;;;;5053315;28;20202;-70
2022/11/04 09:44:10;;;;;;;11.10;6.60;;;10.50;99.90;;;;;;5043191;28;20232;-72
2022/11/04 09:46:38;;;;;;;8.87;5.67;;;10.60;99.90;;;;;;5063985;28;20231;-71
2022/11/04 09:49:10;;;;;;;9.67;6.20;;;10.60;99.90;;;;;;5073875;28;20201;-70
2022/11/04 09:51:40;;;;;;;12.93;6.70;;;10.70;99.90;;;;;;5055363;28;20570;-72
2022/11/04 09:54:16;;;;;;;9.00;5.87;;;10.70;99.90;;;;;;5056878;28;20248;-71
2022/11/04 09:56:45;;;;;;;10.10;6.47;;;10.70;99.90;;;;;;5059603;28;20728;-71
2022/11/04 09:59:17;;;;;;;9.97;6.43;;;10.80;99.90;;;;;;5052103;28;20209;-71
2022/11/04 10:01:56;;;;;;;9.00;6.17;;;10.80;99.90;;;;;;5054099;28;20205;-70
2022/11/04 10:04:33;;;;;;;9.07;6.40;;;10.90;99.90;;;;;;5069744;28;20209;-70
2022/11/04 10:07:17;;;;;;;10.43;6.67;;;11.00;99.90;;;;;;5057680;28;20224;-69
2022/11/04 10:09:55;;;;;;;9.63;6.67;;;11.10;99.90;;;;;;5055904;28;20662;-70
2022/11/04 10:12:41;;;;;;;12.33;6.17;;;11.30;99.90;;;;;;5055633;28;20201;-70
2022/11/04 10:15:21;;;;;;;13.37;7.10;;;11.30;99.90;;;;;;5055340;28;20226;-70
2022/11/04 10:18:06;;;;;;;12.67;6.57;;;11.40;99.90;;;;;;5054455;28;20649;-70
2022/11/04 10:20:42;;;;;;;11.00;7.00;;;11.50;99.90;;;;;;5060999;28;20572;-71
2022/11/04 10:23:21;;;;;;;12.43;7.47;;;11.80;99.90;;;;;;5060708;28;20228;-69
2022/11/04 10:25:55;;;;;;;11.63;7.23;;;12.10;99.90;;;;;;5060403;28;20201;-70
2022/11/04 10:28:30;;;;;;;13.60;8.13;;;12.60;99.90;;;;;;5066093;28;20578;-70
2022/11/04 10:30:56;;;;;;;11.57;7.77;;;13.10;99.90;;;;;;5058322;28;20206;-72
2022/11/04 10:33:29;;;;;;;11.23;6.23;;;13.80;99.90;;;;;;5051493;28;20600;-70
2022/11/04 10:35:58;;;;;;;7.47;5.23;;;15.30;99.90;;;;;;5054995;28;20665;-70
2022/11/04 10:38:33;;;;;;;13.17;6.33;;;16.90;99.90;;;;;;5055954;28;20210;-70
2022/11/04 10:41:01;;;;;;;12.48;6.75;;;19.80;99.90;;;;;;5055717;28;20197;-69
2022/11/04 10:43:32;;;;;;;10.63;6.63;;;22.80;92.50;;;;;;5055989;28;20237;-70
2022/11/04 10:46:15;;;;;;;10.85;6.20;;;25.00;69.50;;;;;;5057931;28;20715;-70
2022/11/04 10:48:49;;;;;;;13.35;6.45;;;26.10;59.20;;;;;;5053223;28;20216;-69
2022/11/04 10:51:20;;;;;;;7.75;5.90;;;26.70;57.50;;;;;;5051308;28;20557;-70
2022/11/04 10:53:48;;;;;;;8.77;5.97;;;27.90;53.30;;;;;;5050739;28;20208;-69
2022/11/04 10:56:33;;;;;;;10.32;6.10;;;29.30;49.70;;;;;;5057434;28;20202;-69
2022/11/04 10:59:12;;;;;;;9.85;6.63;;;29.30;46.40;;;;;;5059604;28;20266;-71
2022/11/04 11:01:48;;;;;;;9.35;6.88;;;28.20;46.20;;;;;;5053661;28;20560;-70
2022/11/04 11:04:25;;;;;;;10.02;6.63;;;26.90;48.30;;;;;;5052541;28;20198;-70
2022/11/04 11:06:54;;;;;;;12.25;6.20;;;26.30;48.50;;;;;;5053735;28;20236;-70
2022/11/04 11:09:27;;;;;;;8.60;5.93;;;26.20;49.70;;;;;;5059823;28;20212;-70
2022/11/04 11:11:57;;;;;;;12.60;6.60;;;25.30;49.50;;;;;;5052687;28;20212;-69
2022/11/04 11:14:36;;;;;;;14.50;6.97;;;24.30;50.90;;;;;;5052519;28;20201;-70
2022/11/04 11:17:19;;;;;;;10.27;5.90;;;23.30;53.00;;;;;;5059115;28;20210;-70
2022/11/04 11:19:50;;;;;;;9.90;6.43;;;23.40;56.10;;;;;;5052904;28;20227;-69
2022/11/04 11:22:40;;;;;;;9.70;6.03;;;25.20;54.60;;;;;;5052457;28;20275;-70
2022/11/04 11:25:23;;;;;;;8.45;6.15;;;27.70;49.60;;;;;;5053278;28;20201;-70
2022/11/04 11:27:53;;;;;;;11.43;6.50;;;29.50;45.40;;;;;;5065325;28;20220;-70
2022/11/04 11:30:28;;;;;;;8.48;5.65;;;30.40;43.80;;;;;;5064496;28;20582;-69
2022/11/04 11:32:58;;;;;;;8.80;5.55;;;31.50;42.90;;;;;;5060634;28;20212;-70
2022/11/04 11:35:33;;;;;;;7.05;5.50;;;32.40;39.30;;;;;;5060478;28;20220;-69
2022/11/04 11:38:04;;;;;;;12.05;6.22;;;32.40;39.50;;;;;;5058911;28;20189;-70
2022/11/04 11:40:36;;;;;;;7.40;6.10;;;32.50;39.50;;;;;;5054242;28;20318;-70
2022/11/04 11:43:05;;;;;;;15.15;7.80;;;32.60;38.90;;;;;;5061840;28;20234;-69
2022/11/04 11:45:32;;;;;;;8.57;6.55;;;31.70;37.70;;;;;;5057021;28;20210;-71
2022/11/04 11:47:59;;;;;;;9.27;6.75;;;29.70;39.50;;;;;;5066576;28;20689;-71
2022/11/04 11:50:33;;;;;;;8.05;6.03;;;27.50;42.50;;;;;;5054958;28;20201;-71
2022/11/04 11:53:14;;;;;;;9.57;6.43;;;25.40;44.90;;;;;;5062564;28;20279;-70
2022/11/04 11:55:46;;;;;;;8.75;5.57;;;23.50;48.00;;;;;;5053571;28;20206;-70
2022/11/04 11:58:23;;;;;;;12.43;6.32;;;22.10;50.00;;;;;;5052126;28;20217;-69
2022/11/04 12:00:56;;;;;;;8.60;5.75;;;20.70;52.20;;;;;;5065083;28;20210;-71
2022/11/04 12:03:29;;;;;;;8.23;5.68;;;19.70;54.40;;;;;;5058807;28;20198;-70
2022/11/04 12:06:13;;;;;;;9.50;5.70;;;18.70;56.10;;;;;;5063675;28;20594;-70
2022/11/04 12:09:05;;;;;;;9.32;5.63;;;18.00;58.20;;;;;;5059850;28;20239;-69
2022/11/04 12:11:40;;;;;;;6.68;5.43;;;17.30;59.60;;;;;;5057506;28;20202;-72
2022/11/04 12:14:16;;;;;;;11.05;6.03;;;16.80;61.70;;;;;;5066565;28;20756;-70
2022/11/04 12:16:52;;;;;;;9.77;6.38;;;16.40;63.20;;;;;;5062164;28;20213;-70
2022/11/04 12:19:40;;;;;;;9.93;5.80;;;16.00;64.70;;;;;;5061516;28;20193;-70
2022/11/04 12:22:18;;;;;;;9.73;6.10;;;15.80;66.10;;;;;;5063087;28;20570;-71
2022/11/04 12:24:54;;;;;;;9.83;5.80;;;15.50;67.50;;;;;;5063353;28;20669;-70
2022/11/04 12:27:32;;;;;;;11.30;6.07;;;15.30;68.70;;;;;;5066361;28;20287;-69
2022/11/04 12:30:07;;;;;;;9.20;5.70;;;15.00;70.10;;;;;;5055176;28;20208;-70
2022/11/04 12:32:48;;;;;;;9.97;5.90;;;14.80;71.40;;;;;;5062691;28;20220;-70
2022/11/04 12:35:32;;;;;;;10.70;6.27;;;14.70;72.50;;;;;;5064066;28;20202;-70
2022/11/04 12:38:24;;;;;;;8.97;6.10;;;14.50;73.50;;;;;;5070214;28;20194;-70
2022/11/04 12:40:58;;;;;;;11.30;5.90;;;14.40;74.90;;;;;;5055625;28;20212;-70
2022/11/04 12:43:31;;;;;;;9.87;5.37;;;14.30;76.00;;;;;;5066290;28;20248;-70
2022/11/04 12:46:09;;;;;;;10.40;5.47;;;14.10;76.90;;;;;;5055404;28;20637;-70
2022/11/04 12:49:03;;;;;;;11.70;5.57;;;14.10;78.10;;;;;;5062242;28;20228;-73
2022/11/04 12:51:42;;;;;;;11.23;5.47;;;14.00;78.90;;;;;;5062944;28;20198;-72
2022/11/04 12:54:34;;;;;;;9.83;5.90;;;13.90;79.90;;;;;;5063093;28;20724;-72
2022/11/04 12:57:13;;;;;;;10.37;5.73;;;13.90;81.20;;;;;;5062934;28;20213;-72
2022/11/04 12:59:59;;;;;;;7.10;5.30;;;13.90;82.10;;;;;;5064366;28;20227;-72
2022/11/04 13:02:32;;;;;;;9.80;5.60;;;13.80;82.50;;;;;;5054850;28;20654;-73
2022/11/04 13:05:05;;;;;;;8.37;5.37;;;13.80;83.20;;;;;;5058534;28;20700;-72
2022/11/04 13:07:38;;;;;;;10.10;5.13;;;13.70;84.10;;;;;;5075815;28;20197;-71
2022/11/04 13:10:08;;;;;;;10.40;6.03;;;13.70;85.40;;;;;;5059885;28;20209;-72
2022/11/04 13:12:40;;;;;;;11.10;6.00;;;13.60;86.10;;;;;;5059611;28;20225;-72
2022/11/04 13:15:15;;;;;;;10.10;5.93;;;13.60;86.80;;;;;;5060494;28;20210;-72
2022/11/04 13:17:45;;;;;;;8.57;5.67;;;13.60;87.50;;;;;;5057983;28;20200;-74
2022/11/04 13:20:30;;;;;;;11.00;6.83;;;13.60;88.40;;;;;;5067896;28;20204;-72
2022/11/04 13:23:02;;;;;;;11.10;5.87;;;13.50;88.80;;;;;;5057489;28;20228;-71
2022/11/04 13:25:32;;;;;;;12.17;5.90;;;13.50;89.70;;;;;;5057737;28;20206;-71
2022/11/04 13:28:00;;;;;;;8.70;5.27;;;13.50;90.20;;;;;;5062836;28;20587;-71
2022/11/04 13:30:35;;;;;;;8.73;5.90;;;13.40;90.50;;;;;;5061968;28;20213;-71
2022/11/04 13:33:12;;;;;;;9.03;5.00;;;13.40;90.70;;;;;;5060811;28;20658;-71
2022/11/04 13:35:46;;;;;;;9.40;5.33;;;13.40;91.00;;;;;;5074283;28;20233;-71
2022/11/04 13:38:17;;;;;;;8.83;6.17;;;13.40;91.20;;;;;;5062972;28;20568;-71